Hovedside
METAR-TAF:

METAR-TAF

Lufthavner :

Rarotonga, Cookøyene

breddegrad: 21-12S, lengdegrad: 159-49W, høyde over havet: 7 m

Gjeldene værobservasjon

Denne rapporten ble laget for 31 minutter siden, klokken 13:00 UTC
Vind 8 kt fra Øst-nordøst
Temperatur 27°C
Luftfuktighet 89%
Trykk 1009 hPa
Sikt 10 km eller mer

METAR: NCRG 221300Z AUTO 06008KT 9999 SCT013/// 27/25 Q1009

Tid: 03:31 (13:31 UTC)

Varsel

Denne rapporten ble laget for 2 timer og 14 minutter siden, klokken 11:17 UTC
Varsel gyldig fra 22. klokken 12 UTC til 23. klokken 12 UTC
Vind 6 kt fra Øst
Sikt 10 km eller mer
Spredte skyer i en høyde av 2000 ft

TAF: NCRG 221117Z 2212/2312 08006KT 9999 SCT020

Værobservasjoner og værvarsel for over 4000 flyplasser (METAR- og TAF-rapporter).

Tilgjengelige stasjoner er representert av de røde og gule prikkene på kartet.

Hold musepekeren over prikken for å se navnet på stasjonen.

Klikk så for å se værobservasjoner og -varsler.

For å forandre kartet kan du klikke på den grønne knappen med svart kryss for å zoome inn, på den grønne knappen med strek for å zoome ut, eller på de grønne pilene for å se tilstøtende kart.


METAR-TAF: